Date,TemperatureHighF,TemperatureAvgF,TemperatureLowF,DewpointHighF,DewpointAvgF,DewpointLowF,HumidityHigh,HumidityAvg,HumidityLow,PressureMaxIn,PressureMinIn,WindSpeedMaxMPH,WindSpeedAvgMPH,GustSpeedMaxMPH,PrecipitationSumIn
2014-3-1,43.9,23.4,9.0,19.9,5.3,-6.7,56,46,36,30.24,29.97,12,1,15,0.00
2014-3-2,43.9,35.1,28.4,30.8,21.8,15.1,87,59,42,29.97,29.83,13,1,16,0.08
2014-3-3,32.0,20.9,13.1,16.8,4.9,-2.9,69,49,45,30.18,29.83,22,6,31,0.00
2014-3-4,36.5,21.7,10.8,14.3,2.7,-5.1,48,43,37,30.24,30.06,13,2,14,0.00
2014-3-5,46.4,28.2,17.6,20.1,9.0,3.7,57,45,34,30.27,30.03,20,4,25,0.00
2014-3-6,37.0,25.6,17.4,13.2,7.3,0.6,55,46,37,30.39,30.27,15,5,19,0.00
2014-3-7,44.4,33.5,23.4,23.2,17.3,10.4,58,52,43,30.27,29.74,18,4,18,0.00
2014-3-8,58.6,43.6,28.9,32.7,25.4,19.0,69,50,37,29.74,29.65,16,3,18,0.00
2014-3-9,45.7,39.6,34.5,35.7,23.6,14.0,87,55,38,29.88,29.71,22,4,26,0.08
2014-3-10,58.6,44.2,34.2,32.3,22.7,14.0,54,43,37,29.80,29.44,21,4,21,0.00
2014-3-11,67.3,49.3,34.9,39.3,30.5,23.1,65,49,35,29.50,29.41,15,2,17,0.00
2014-3-12,65.3,48.4,26.8,50.3,35.2,10.2,91,62,37,29.47,28.82,22,5,34,0.28
2014-3-13,35.1,25.8,18.5,12.9,6.2,1.6,50,43,36,29.94,29.15,30,10,35,0.00
2014-3-14,53.6,36.8,20.5,25.2,14.3,0.8,51,40,33,30.03,29.68,27,6,32,0.00
2014-3-15,63.7,49.8,41.9,32.5,24.4,18.2,42,37,31,29.85,29.59,26,7,33,0.00
2014-3-16,42.8,36.1,30.4,20.4,13.7,6.6,48,39,34,30.03,29.85,18,7,22,0.00
2014-3-17,37.9,30.5,23.2,18.0,11.4,4.5,78,45,36,29.94,29.83,20,6,26,0.04
2014-3-18,52.3,38.1,30.9,26.5,15.8,10.0,44,40,34,30.09,29.91,19,5,23,0.00
2014-3-19,49.1,40.3,33.6,41.4,30.1,13.4,97,68,43,30.06,29.65,17,4,19,0.67
2014-3-20,55.0,44.9,40.3,41.8,31.6,19.0,98,64,36,29.77,29.59,28,5,30,0.00
2014-3-21,57.0,41.6,31.5,30.1,20.9,15.5,59,44,32,29.85,29.77,22,4,23,0.00
2014-3-22,70.3,48.1,31.6,40.2,27.0,18.3,67,46,30,29.85,29.59,21,4,27,0.00
2014-3-23,48.2,40.8,27.7,24.4,18.2,5.8,43,40,35,29.97,29.80,18,5,22,0.00
2014-3-24,40.3,28.6,20.7,14.3,6.7,0.2,46,39,34,30.12,29.94,22,6,28,0.00
2014-3-25,41.2,29.7,18.1,28.2,17.2,5.0,85,61,41,29.97,29.68,18,2,24,0.00
2014-3-26,45.1,31.6,27.0,26.7,15.8,4.1,87,54,35,30.06,29.62,31,6,32,0.00
2014-3-27,48.7,29.8,20.3,21.3,9.0,0.7,52,41,34,30.24,30.06,22,4,29,0.00
2014-3-28,64.2,48.1,33.3,46.1,34.5,18.3,81,60,48,30.06,29.80,30,5,32,0.04
2014-3-29,54.1,47.8,45.1,46.8,44.7,40.1,98,89,62,29.94,29.44,17,3,22,1.18
2014-3-30,47.7,43.5,37.9,47.3,39.0,25.6,100,85,61,29.56,29.32,20,5,25,1.14
2014-3-31,67.1,46.1,35.2,38.6,28.5,22.6,87,53,34,29.91,29.56,34,8,34,0.08